30 de junho de 2022

Hora Código Clima Temp. Visibilidade Tecto Vento METAR/SPECI
11:50 da tarde
V
68 °F 6¼ mi+ 22.000 ft 310° 310° 6 kt METAR ETHL 302150Z 31006KT 9999 VCTS FEW020CB SCT140 BKN220 20/13 Q1014 BLU+
11:20 da tarde
V
68 °F 6¼ mi+ 22.000 ft 300° 300° 6 kt METAR ETHL 302120Z 30006KT 9999 FEW020CB SCT140 BKN220 20/16 Q1014 BLU+
10:20 da tarde
V
70 °F 6¼ mi+ 22.000 ft 090° 090° 6 kt METAR ETHL 302020Z 09006KT 9999 FEW020 SCT130 BKN220 21/15 Q1012 BLU+
9:20 da tarde
V
72 °F 6¼ mi+ 19.000 ft 050° 050° 8 kt METAR ETHL 301920Z 05008KT 9999 VCSH SCT020CB SCT130 BKN190 22/16 Q1012 BLU
8:20 da tarde
V
77 °F 6¼ mi+ 20.000 ft 160° 160° 3 kt METAR ETHL 301820Z 16003KT 9999 SCT020TCU SCT130 BKN200 25/16 Q1012 BLU+
7:20 da tarde
V
79 °F 6¼ mi+ 12.000 ft 180° 180° 4 kt METAR ETHL 301720Z 18004KT 9999 VCSH SCT015CB BKN120 BKN200 26/16 Q1011 BLU
6:20 da tarde
V
82 °F 6¼ mi+ 10.000 ft 200° 200° 4 kt METAR ETHL 301620Z 20004KT 9999 VCSH SCT015CB BKN100 BKN220 28/14 Q1011 BLU
5:20 da tarde
V
82 °F 6¼ mi+ 28.000 ft 090° 090° 6 kt METAR ETHL 301520Z 09006KT 9999 FEW050 SCT110 BKN280 28/14 Q1011 BLU+FCST CANCEL
4:20 da tarde
V
82 °F 6¼ mi+ 14.000 ft 050° 050° 4 kt METAR ETHL 301420Z 05004KT 9999 FEW050 BKN140 BKN230 28/15 Q1010 BLU BLU BECMG BLU+
3:20 da tarde
V
81 °F 6¼ mi+ 26.000 ft 150° 150° 5 kt METAR ETHL 301320Z 15005KT 9999 FEW050 BKN260 27/14 Q1012 BLU+BLU+BECMG BLU
2:20 da tarde
V
81 °F 6¼ mi+ - 120° 120° 5 kt METAR ETHL 301220Z 12005KT 9999 FEW050 SCT310 27/14 Q1012 BLU+BLU+
1:20 da tarde
V
81 °F 6¼ mi+ - 100° 100° 5 kt METAR ETHL 301120Z 10005KT 9999 FEW047 27/15 Q1012 BLU+BLU+
12:20 da tarde
V
79 °F 6¼ mi+ - 080° 080° 4 kt METAR ETHL 301020Z 08004KT 9999 FEW044 26/15 Q1012 BLU+BLU+
11:20 da manhã
V
77 °F 6¼ mi+ - 080° 080° 6 kt METAR ETHL 300920Z 08006KT 9999 FEW040 25/15 Q1013 BLU+BLU+
10:20 da manhã
V
75 °F 6¼ mi+ - 070° 070° 4 kt METAR ETHL 300820Z 07004KT 9999 FEW032 24/17 Q1013 BLU+BLU+
9:20 da manhã
V
72 °F 6¼ mi+ - 070° 070° 2 kt METAR ETHL 300720Z 07002KT 9999 FEW024 22/16 Q1013 BLU+BLU+
8:20 da manhã
V
66 °F 6¼ mi+ - Var Var 2 kt METAR ETHL 300620Z VRB02KT 9999 FEW120 19/16 Q1014 BLU+BLU+
7:20 da manhã
V
64 °F 6¼ mi+ - Var Var 1 kt METAR ETHL 300520Z VRB01KT 9999 FEW120 18/15 Q1013 BLU+BLU+
6:20 da manhã
V
59 °F 6¼ mi+ - Var Var 1 kt METAR ETHL 300420Z VRB01KT 9999 FEW120 15/14 Q1014 BLU+BLU+
5:20 da manhã
V
59 °F 6¼ mi+ - 200° 200° 1 kt METAR ETHL 300320Z AUTO 20001KT 9999 // ////// 15/13 Q1014 ///
4:20 da manhã
M
61 °F 4⅜ mi - 220° 220° 2 kt METAR ETHL 300220Z AUTO 22002KT 7000 // ////// 16/14 Q1014 ///
3:20 da manhã
M
61 °F 4⅜ mi - 190° 190° 1 kt METAR ETHL 300120Z AUTO 19001KT 7000 // ////// 16/14 Q1014 ///
2:20 da manhã
V
63 °F 5⅝ mi - 230° 230° 1 kt METAR ETHL 300020Z AUTO 23001KT 9000 // ////// 17/15 Q1014 ///
1:20 da manhã
M
63 °F 3¾ mi - 220° 220° 3 kt METAR ETHL 292320Z AUTO 22003KT 6000 // ////// 17/15 Q1014 ///
12:20 da manhã
V
64 °F 5⅝ mi - 230° 230° 3 kt METAR ETHL 292220Z AUTO 23003KT 9000 // ////// 18/15 Q1014 ///

29 de junho de 2022

Hora Código Clima Temp. Visibilidade Tecto Vento METAR/SPECI
11:20 da tarde
V
66 °F 6¼ mi+ - 230° 230° 2 kt METAR ETHL 292120Z 23002KT 9999 SCT050 19/16 Q1014 BLU+
10:20 da tarde
V
70 °F 6¼ mi+ - 200° 200° 2 kt METAR ETHL 292020Z 20002KT 9999 SCT050 21/15 Q1014 BLU+
9:20 da tarde
V
73 °F 6¼ mi+ - 250° 250° 2 kt METAR ETHL 291920Z 25002KT 9999 FEW040 23/15 Q1013 BLU+
8:20 da tarde
V
75 °F 6¼ mi+ - 250° 250° 4 kt METAR ETHL 291820Z 25004KT 9999 FEW040 24/15 Q1013 BLU+
7:20 da tarde
V
77 °F 6¼ mi+ - 240° 240° 4 kt METAR ETHL 291720Z 24004KT 9999 FEW040 25/14 Q1013 BLU+
6:20 da tarde
V
75 °F 6¼ mi+ - 260° 260° 3 kt METAR ETHL 291620Z 26003KT 9999 FEW040 24/14 Q1013 BLU+
5:20 da tarde
V
77 °F 6¼ mi+ - 230° 230° 5 kt METAR ETHL 291520Z 23005KT 9999 FEW040 SCT080 25/15 Q1014 BLU+FCST CNL
4:20 da tarde
V
77 °F 6¼ mi+ - 250° 250° 7 kt METAR ETHL 291420Z 25007KT 9999 FEW040 SCT060 25/15 Q1014 BLU+BLU+
3:20 da tarde
V
75 °F 6¼ mi+ - 260° 260° 4 kt METAR ETHL 291320Z 26004KT 9999 FEW040 SCT060 24/14 Q1014 BLU+BLU+
2:20 da tarde
V
73 °F 6¼ mi+ 8.000 ft 250° 250° 3 kt METAR ETHL 291220Z 25003KT 9999 SCT036 BKN080 23/14 Q1015 BLU BLU
1:20 da tarde
V
75 °F 6¼ mi+ 9.000 ft 250° 250° 5 kt METAR ETHL 291120Z 25005KT 9999 FEW036 BKN090 24/15 Q1015 BLU BLU
12:20 da tarde
V
72 °F 6¼ mi+ 9.000 ft 240° 240° 5 kt METAR ETHL 291020Z 24005KT 9999 SCT026 BKN090 22/14 Q1015 BLU BLU
11:20 da manhã
V
70 °F 6¼ mi+ - 240° 240° 4 kt METAR ETHL 290920Z 24004KT 9999 SCT021 SCT110 21/15 Q1015 BLU+BLU
10:20 da manhã
V
66 °F 6¼ mi+ 10.000 ft 260° 260° 5 kt METAR ETHL 290820Z 26005KT 9999 FEW010 SCT026 BKN100 19/15 Q1015 BLU BLU
9:42 da manhã
V
64 °F 6¼ mi+ 13.000 ft 260° 260° 6 kt METAR ETHL 290742Z 26006KT 9999 FEW009 SCT026 BKN130 18/15 Q1016 BLU BLU
9:20 da manhã
M
64 °F 5⅝ mi 2.400 ft 250° 250° 3 kt METAR ETHL 290720Z 25003KT 9000 FEW008 BKN024 BKN100 18/15 Q1016 WHT WHT BECMG BLU
8:20 da manhã
M
63 °F 5⅝ mi 2.200 ft 250° 250° 5 kt METAR ETHL 290620Z 25005KT 9000 FEW005 BKN022 BKN100 17/15 Q1016 WHT WHT
7:20 da manhã
M
61 °F 5⅝ mi 1.800 ft 230° 230° 3 kt METAR ETHL 290520Z 23003KT 9000 FEW005 BKN018 BKN120 16/14 Q1015 WHT WHT
6:20 da manhã
M
59 °F 6¼ mi+ 1.400 ft 210° 210° 3 kt METAR ETHL 290420Z 21003KT 9999 FEW005 BKN014 15/14 Q1015 GRN GRN
5:20 da manhã
M
59 °F 4⅜ mi - 280° 280° 4 kt METAR ETHL 290320Z AUTO 28004KT 7000 // ////// 15/14 Q1015 ///
4:20 da manhã
M
59 °F 4⅜ mi - Var Var 1 kt METAR ETHL 290220Z AUTO VRB01KT 7000 // ////// 15/14 Q1015 ///
3:20 da manhã
M
57 °F 3¾ mi - 190° 190° 3 kt METAR ETHL 290120Z AUTO 19003KT 6000 // ////// 14/13 Q1016 ///
2:20 da manhã
M
57 °F 4⅜ mi - 120° 120° 2 kt METAR ETHL 290020Z AUTO 12002KT 7000 // ////// 14/14 Q1016 ///
1:20 da manhã
V
59 °F 5 mi - Var 000° 0 kt METAR ETHL 282320Z AUTO 00000KT 8000 // ////// 15/14 Q1016 ///
12:20 da manhã
M
61 °F 4⅜ mi - 330° 330° 1 kt METAR ETHL 282220Z AUTO 33001KT 7000 // ////// 16/14 Q1016 ///

28 de junho de 2022

Hora Código Clima Temp. Visibilidade Tecto Vento METAR/SPECI
11:20 da tarde
V
63 °F 6¼ mi+ 10.000 ft 360° 360° 1 kt METAR ETHL 282120Z 36001KT 9999 BKN100 17/14 Q1016 BLU
10:20 da tarde
V
63 °F 6¼ mi+ 12.000 ft 070° 070° 8 kt METAR ETHL 282020Z 07008KT 9999 FEW020 BKN120 17/14 Q1016 BLU
9:20 da tarde
V
64 °F 6¼ mi+ 17.000 ft 070° 070° 6 kt METAR ETHL 281920Z 07006KT 9999 FEW020 SCT140 BKN170 18/14 Q1016 BLU
8:20 da tarde
V
66 °F 6¼ mi+ 14.000 ft 050° 050° 4 kt METAR ETHL 281820Z 05004KT 9999 SCT020 BKN140 BKN220 19/14 Q1016 BLU
7:20 da tarde
V
68 °F 6¼ mi+ 3.000 ft 060° 060° 8 kt METAR ETHL 281720Z 06008KT 9999 BKN030 OVC120 20/14 Q1017 BLU
6:20 da tarde
V
68 °F 6¼ mi+ 12.000 ft 060° 060° 8 kt METAR ETHL 281620Z 06008KT 9999 FEW030 BKN120 20/14 Q1017 BLU
5:20 da tarde
V
68 °F 6¼ mi+ 3.100 ft 090° 090° 8 kt METAR ETHL 281520Z 09008KT 9999 FEW020 BKN031 20/13 Q1019 BLU FCST CANCEL
Dados mais antigos

Baixe nosso aplicativo

Fácil acesso a todas as condições meteorológicas da aviação no seu celular e no seu tablet.
Com muitas características não disponíveis no site, como suporte offline e uma lista pessoal de aeroportos.

Nós e terceiros acompanhamos seu comportamento na internet em nosso site com cookies. Se você continuar, nós assumimos que você concorda com nossa política de cookies. Saiba mais